Time;durP1;ratioP1;P1;durP2;ratioP2;P2;SDS_P1;SDS_P2;PMS_P1;PMS_P2;Temp;Humidity;BMP_temperature;BMP_pressure;BME280_temperature;BME280_humidity;BME280_pressure;Samples;Min_cycle;Max_cycle;Signal;HPM_P1;HPM_P2
2021/10/13 00:01:49;;;;;;;12.85;11.40;;;8.20;99.90;;;;;;5046829;28;20045;-73
2021/10/13 00:04:15;;;;;;;13.70;12.25;;;8.20;99.90;;;;;;5049122;28;20032;-75
2021/10/13 00:06:40;;;;;;;12.30;10.90;;;8.10;99.90;;;;;;5051546;28;20037;-74
2021/10/13 00:09:06;;;;;;;14.05;11.45;;;8.00;99.90;;;;;;5046153;28;20068;-74
2021/10/13 00:11:33;;;;;;;14.05;10.98;;;8.00;99.90;;;;;;5042908;28;20032;-74
2021/10/13 00:13:59;;;;;;;13.30;10.88;;;7.90;99.90;;;;;;5022219;28;20049;-74
2021/10/13 00:16:25;;;;;;;13.02;11.32;;;7.90;99.90;;;;;;5005855;28;20029;-75
2021/10/13 00:18:51;;;;;;;13.60;11.35;;;7.90;99.90;;;;;;5025091;28;20022;-76
2021/10/13 00:21:16;;;;;;;16.23;12.38;;;7.90;99.90;;;;;;5030486;28;20030;-74
2021/10/13 00:23:42;;;;;;;15.63;12.70;;;7.80;99.90;;;;;;5034356;28;20030;-74
2021/10/13 00:26:08;;;;;;;14.05;12.45;;;7.80;99.90;;;;;;5017200;28;20014;-74
2021/10/13 00:28:33;;;;;;;13.20;11.70;;;7.80;99.90;;;;;;5033304;28;20056;-75
2021/10/13 00:30:59;;;;;;;13.23;11.95;;;7.80;99.90;;;;;;5033712;28;20040;-74
2021/10/13 00:33:25;;;;;;;15.30;12.65;;;7.90;99.90;;;;;;5033495;28;20033;-74
2021/10/13 00:35:50;;;;;;;12.70;11.50;;;7.90;99.90;;;;;;5049695;28;20044;-76
2021/10/13 00:38:16;;;;;;;12.52;11.20;;;7.90;99.90;;;;;;5051655;28;20497;-73
2021/10/13 00:40:42;;;;;;;12.75;11.27;;;7.90;99.90;;;;;;5051788;28;20017;-74
2021/10/13 00:43:08;;;;;;;13.60;12.13;;;7.90;99.90;;;;;;5050577;28;20077;-74
2021/10/13 00:45:33;;;;;;;14.45;12.45;;;7.90;99.90;;;;;;5050243;28;20083;-73
2021/10/13 00:47:59;;;;;;;14.05;12.68;;;7.90;99.90;;;;;;5047950;28;20035;-75
2021/10/13 00:50:24;;;;;;;13.93;12.50;;;7.90;99.90;;;;;;5040654;28;20045;-75
2021/10/13 00:52:50;;;;;;;15.18;12.15;;;7.80;99.90;;;;;;5036621;28;20037;-76
2021/10/13 00:55:19;;;;;;;13.77;12.10;;;7.80;99.90;;;;;;5018769;28;20053;-76
2021/10/13 00:57:47;;;;;;;13.77;12.32;;;7.80;99.90;;;;;;5035663;28;20488;-75
2021/10/13 01:00:14;;;;;;;15.52;12.07;;;7.80;99.90;;;;;;5018251;28;20025;-76
2021/10/13 01:03:17;;;;;;;13.80;12.40;;;7.90;99.90;;;;;;5035477;28;20025;-75
2021/10/13 01:05:54;;;;;;;15.50;11.65;;;7.90;99.90;;;;;;5035511;28;20048;-74
2021/10/13 01:08:35;;;;;;;14.95;11.38;;;7.90;99.90;;;;;;5034759;28;20038;-75
2021/10/13 01:11:21;;;;;;;14.68;13.05;;;8.00;99.90;;;;;;5033123;28;20453;-75
2021/10/13 01:14:09;;;;;;;14.25;12.38;;;8.00;99.90;;;;;;5038009;28;20037;-74
2021/10/13 01:16:53;;;;;;;14.85;12.52;;;8.00;99.90;;;;;;5038532;28;20556;-75
2021/10/13 01:19:39;;;;;;;14.07;11.57;;;7.90;99.90;;;;;;5034899;28;20030;-76
2021/10/13 01:22:43;;;;;;;16.63;11.43;;;7.90;99.90;;;;;;5035419;28;20018;-76
2021/10/13 01:25:18;;;;;;;13.95;12.07;;;7.90;99.90;;;;;;5034840;28;20393;-75
2021/10/13 01:27:53;;;;;;;15.00;12.38;;;7.90;99.90;;;;;;5017442;28;20124;-75
2021/10/13 01:30:20;;;;;;;14.25;11.43;;;7.90;99.90;;;;;;5032944;28;20033;-75
2021/10/13 01:33:03;;;;;;;14.82;10.52;;;7.90;99.90;;;;;;5017506;28;20029;-77
2021/10/13 01:35:31;;;;;;;12.75;11.45;;;7.90;99.90;;;;;;5034891;28;20032;-75
2021/10/13 01:38:02;;;;;;;14.77;10.68;;;8.00;99.90;;;;;;5035113;28;20049;-75
2021/10/13 01:40:30;;;;;;;;;;;7.90;99.90;;;;;;5032077;28;20026;-75
2021/10/13 01:42:59;;;;;;;12.40;9.85;;;7.90;99.90;;;;;;5050286;28;19912;-74
2021/10/13 01:45:25;;;;;;;12.00;10.55;;;7.90;99.90;;;;;;5055154;28;20021;-76
2021/10/13 01:47:52;;;;;;;14.70;10.65;;;7.80;99.90;;;;;;5040589;28;20059;-74
2021/10/13 01:50:19;;;;;;;11.13;9.80;;;7.90;99.90;;;;;;5055767;28;20100;-76
2021/10/13 01:52:49;;;;;;;13.90;11.27;;;7.90;99.90;;;;;;5048340;28;20033;-75
2021/10/13 01:55:20;;;;;;;12.50;11.23;;;7.90;99.90;;;;;;5039098;28;20032;-74
2021/10/13 01:57:50;;;;;;;13.82;11.07;;;7.90;99.90;;;;;;5018204;28;20022;-75
2021/10/13 02:00:17;;;;;;;16.33;11.18;;;7.90;99.90;;;;;;5019306;28;20026;-75
2021/10/13 02:02:45;;;;;;;11.27;10.18;;;7.80;99.90;;;;;;5021266;28;20026;-74
2021/10/13 02:05:14;;;;;;;14.00;11.23;;;7.80;99.90;;;;;;5019565;28;20113;-75
2021/10/13 02:07:41;;;;;;;14.73;11.05;;;7.90;99.90;;;;;;5020072;28;20501;-75
2021/10/13 02:10:10;;;;;;;11.32;10.05;;;7.90;99.90;;;;;;5024584;28;20036;-75
2021/10/13 02:12:40;;;;;;;11.75;9.90;;;7.80;99.90;;;;;;5005267;28;20026;-73
2021/10/13 02:15:07;;;;;;;11.90;9.65;;;7.80;99.90;;;;;;5021886;28;20046;-75
2021/10/13 02:17:37;;;;;;;10.90;9.50;;;7.80;99.90;;;;;;5038259;28;20014;-73
2021/10/13 02:20:04;;;;;;;12.43;9.80;;;7.80;99.90;;;;;;5062940;23;20050;-76
2021/10/13 02:22:31;;;;;;;12.85;9.32;;;7.80;99.90;;;;;;5045342;28;20025;-77
2021/10/13 02:24:57;;;;;;;12.85;9.43;;;7.90;99.90;;;;;;5020761;28;20029;-77
2021/10/13 02:27:31;;;;;;;11.32;9.65;;;7.90;99.90;;;;;;5019936;28;20036;-74
2021/10/13 02:29:57;;;;;;;10.40;9.27;;;7.80;99.90;;;;;;5012097;28;20057;-76
2021/10/13 02:32:23;;;;;;;10.10;9.07;;;7.80;99.90;;;;;;4999624;28;20023;-76
2021/10/13 02:34:49;;;;;;;11.32;9.10;;;7.80;99.90;;;;;;5004254;28;20028;-77
2021/10/13 02:37:15;;;;;;;9.80;8.80;;;7.80;99.90;;;;;;5018767;28;20096;-76
2021/10/13 02:39:41;;;;;;;12.27;10.10;;;7.80;99.90;;;;;;5014887;28;20481;-75
2021/10/13 02:42:08;;;;;;;10.32;9.32;;;7.80;99.90;;;;;;5018774;28;20025;-76
2021/10/13 02:44:34;;;;;;;12.75;9.25;;;7.80;99.90;;;;;;5023265;28;20022;-76
2021/10/13 02:47:06;;;;;;;11.18;9.88;;;7.80;99.90;;;;;;5021428;28;20033;-75
2021/10/13 02:50:11;;;;;;;9.50;8.60;;;7.80;99.90;;;;;;5021363;28;20018;-74
2021/10/13 02:52:43;;;;;;;11.55;9.88;;;7.80;99.90;;;;;;5038514;28;20049;-75
2021/10/13 02:55:19;;;;;;;10.98;9.80;;;7.80;99.90;;;;;;5039122;28;20018;-74
2021/10/13 02:58:11;;;;;;;14.05;9.85;;;7.80;99.90;;;;;;5039103;28;20038;-74
2021/10/13 03:00:39;;;;;;;12.20;10.88;;;7.80;99.90;;;;;;5023384;28;20048;-77
2021/10/13 03:03:25;;;;;;;13.32;11.15;;;7.80;99.90;;;;;;5001538;28;20079;-76
2021/10/13 03:05:52;;;;;;;12.82;9.98;;;7.80;99.90;;;;;;4998925;28;20045;-76
2021/10/13 03:08:22;;;;;;;11.30;10.10;;;7.70;99.90;;;;;;5016667;28;20018;-76
2021/10/13 03:10:51;;;;;;;13.68;10.10;;;7.70;99.90;;;;;;5015483;28;20026;-77
2021/10/13 03:13:22;;;;;;;11.80;10.35;;;7.60;99.90;;;;;;4997806;28;20363;-76
2021/10/13 03:15:50;;;;;;;14.80;11.55;;;7.50;99.90;;;;;;5016995;28;20014;-77
2021/10/13 03:18:16;;;;;;;14.57;11.48;;;7.40;99.90;;;;;;5015097;28;20030;-76
2021/10/13 03:20:42;;;;;;;15.77;11.65;;;7.40;99.90;;;;;;5014536;28;20124;-76
2021/10/13 03:23:08;;;;;;;16.67;12.13;;;7.40;99.90;;;;;;5014324;28;20021;-76
2021/10/13 03:25:34;;;;;;;14.98;12.45;;;7.30;99.90;;;;;;5015179;28;20380;-75
2021/10/13 03:28:03;;;;;;;16.00;12.07;;;7.30;99.90;;;;;;5014943;28;20026;-76
2021/10/13 03:30:30;;;;;;;16.05;11.57;;;7.30;99.90;;;;;;4996342;28;20853;-75
2021/10/13 03:32:56;;;;;;;13.82;12.23;;;7.30;99.90;;;;;;5014271;28;20061;-76
2021/10/13 03:35:22;;;;;;;15.50;12.82;;;7.30;99.90;;;;;;5013785;28;20069;-76
2021/10/13 03:37:48;;;;;;;15.88;12.40;;;7.30;99.90;;;;;;5013552;28;20026;-76
2021/10/13 03:40:14;;;;;;;14.23;11.55;;;7.30;99.90;;;;;;5023731;28;20570;-76
2021/10/13 03:42:39;;;;;;;15.82;10.93;;;7.30;99.90;;;;;;5021212;28;20025;-76
2021/10/13 03:45:05;;;;;;;15.65;12.13;;;7.20;99.90;;;;;;5014359;28;20029;-77
2021/10/13 03:47:31;;;;;;;15.70;12.07;;;7.20;99.90;;;;;;5013715;28;20117;-76
2021/10/13 03:49:56;;;;;;;15.98;11.40;;;7.20;99.90;;;;;;5013454;28;20061;-77
2021/10/13 03:52:22;;;;;;;13.77;11.35;;;7.30;99.90;;;;;;5013780;28;20029;-76
2021/10/13 03:54:47;;;;;;;15.73;12.35;;;7.30;99.90;;;;;;5013856;28;20026;-76
2021/10/13 03:57:13;;;;;;;13.27;11.02;;;7.20;99.90;;;;;;5013569;28;20030;-76
2021/10/13 03:59:38;;;;;;;16.73;12.07;;;7.20;99.90;;;;;;5013061;28;20113;-77
2021/10/13 04:02:04;;;;;;;14.75;11.60;;;7.30;99.90;;;;;;5015896;28;20100;-77
2021/10/13 04:04:29;;;;;;;15.32;11.60;;;7.20;99.90;;;;;;5012870;28;20486;-76
2021/10/13 04:06:55;;;;;;;14.52;11.48;;;7.30;99.90;;;;;;5013367;28;20041;-75
2021/10/13 04:09:21;;;;;;;17.50;12.07;;;7.30;99.90;;;;;;5013416;28;20498;-75
2021/10/13 04:11:46;;;;;;;17.20;11.10;;;7.20;99.90;;;;;;5014226;28;20521;-77
2021/10/13 04:14:12;;;;;;;14.57;11.32;;;7.30;99.90;;;;;;5014478;28;20064;-75
2021/10/13 04:16:37;;;;;;;16.42;11.70;;;7.30;99.90;;;;;;5018976;28;20022;-76
2021/10/13 04:19:03;;;;;;;16.30;12.65;;;7.30;99.90;;;;;;5027250;28;20057;-75
2021/10/13 04:21:28;;;;;;;15.52;11.63;;;7.30;99.90;;;;;;5030274;28;20041;-75
2021/10/13 04:23:54;;;;;;;15.43;11.52;;;7.40;99.90;;;;;;5030514;28;20026;-76
2021/10/13 04:26:19;;;;;;;15.95;11.52;;;7.40;99.90;;;;;;5007489;28;20030;-76
2021/10/13 04:28:46;;;;;;;13.70;11.68;;;7.40;99.90;;;;;;4995113;28;20057;-76
2021/10/13 04:31:11;;;;;;;14.38;12.45;;;7.40;99.90;;;;;;4996788;28;20037;-76
2021/10/13 04:33:37;;;;;;;18.98;11.50;;;7.50;99.90;;;;;;5002099;28;20512;-77
2021/10/13 04:36:03;;;;;;;15.93;12.63;;;7.50;99.90;;;;;;5022671;28;20018;-77
2021/10/13 04:38:28;;;;;;;14.27;10.27;;;7.40;99.90;;;;;;5019843;28;20022;-77
2021/10/13 04:40:54;;;;;;;17.10;11.25;;;7.50;99.90;;;;;;5017772;28;20030;-77
2021/10/13 04:43:20;;;;;;;13.65;10.70;;;7.50;99.90;;;;;;5017185;28;20022;-76
2021/10/13 04:45:46;;;;;;;15.70;11.43;;;7.50;99.90;;;;;;5018464;28;20502;-77
2021/10/13 04:48:11;;;;;;;14.43;11.80;;;7.40;99.90;;;;;;5017815;28;20112;-76
2021/10/13 04:50:37;;;;;;;12.93;11.15;;;7.50;99.90;;;;;;5017102;28;20030;-76
2021/10/13 04:53:02;;;;;;;15.70;11.43;;;7.50;99.90;;;;;;5018883;28;20033;-76
2021/10/13 04:55:28;;;;;;;16.25;11.85;;;7.50;99.90;;;;;;5018616;28;20034;-76
2021/10/13 04:57:55;;;;;;;14.70;12.55;;;7.40;99.90;;;;;;5015928;28;20034;-76
2021/10/13 05:00:21;;;;;;;16.77;13.23;;;7.50;99.90;;;;;;5014632;28;20022;-76
2021/10/13 05:02:47;;;;;;;17.48;12.50;;;7.40;99.90;;;;;;5017484;28;20018;-76
2021/10/13 05:05:13;;;;;;;19.55;14.18;;;7.40;99.90;;;;;;5018670;28;20022;-77
2021/10/13 05:07:38;;;;;;;26.02;14.23;;;7.50;99.90;;;;;;4997725;28;20030;-76
2021/10/13 05:10:04;;;;;;;18.90;13.60;;;7.40;99.90;;;;;;5014809;28;20109;-77
2021/10/13 05:12:30;;;;;;;20.13;15.05;;;7.40;99.90;;;;;;5020911;28;20010;-77
2021/10/13 05:14:55;;;;;;;24.73;16.70;;;7.30;99.90;;;;;;5034786;28;20071;-75
2021/10/13 05:17:21;;;;;;;18.13;14.05;;;7.30;99.90;;;;;;5025796;28;20037;-77
2021/10/13 05:19:47;;;;;;;18.08;14.23;;;7.30;99.90;;;;;;5015803;28;20034;-77
2021/10/13 05:22:12;;;;;;;25.40;14.25;;;7.40;99.90;;;;;;5015005;28;20145;-77
2021/10/13 05:24:38;;;;;;;17.20;14.45;;;7.30;99.90;;;;;;5014117;28;20024;-76
2021/10/13 05:27:04;;;;;;;19.60;13.52;;;7.30;99.90;;;;;;5013063;28;20061;-76
2021/10/13 05:29:29;;;;;;;22.02;13.93;;;7.20;99.90;;;;;;5018376;28;20034;-77
2021/10/13 05:31:55;;;;;;;19.13;14.18;;;7.20;99.90;;;;;;5018082;28;20058;-76
2021/10/13 05:34:20;;;;;;;19.25;13.02;;;7.20;99.90;;;;;;5016899;28;20109;-76
2021/10/13 05:36:46;;;;;;;17.95;12.60;;;7.20;99.90;;;;;;5018850;28;20030;-77
2021/10/13 05:39:11;;;;;;;16.63;12.35;;;7.30;99.90;;;;;;5021781;28;20030;-77
2021/10/13 05:41:38;;;;;;;16.17;12.50;;;7.30;99.90;;;;;;5033610;28;20184;-76
2021/10/13 05:44:03;;;;;;;21.27;12.68;;;7.20;99.90;;;;;;5038976;28;20025;-77
2021/10/13 05:46:29;;;;;;;16.02;12.15;;;7.30;99.90;;;;;;5029096;28;20394;-76
2021/10/13 05:48:54;;;;;;;16.92;12.98;;;7.30;99.90;;;;;;5023064;28;20026;-77
2021/10/13 05:51:20;;;;;;;15.82;12.90;;;7.30;99.90;;;;;;5019103;28;20022;-76
2021/10/13 05:53:46;;;;;;;21.63;12.73;;;7.40;99.90;;;;;;5022362;28;20026;-77
2021/10/13 05:56:11;;;;;;;14.70;12.95;;;7.40;99.90;;;;;;5004553;28;20037;-76
2021/10/13 05:58:41;;;;;;;13.32;11.95;;;7.40;99.90;;;;;;5019750;28;20556;-76
2021/10/13 06:01:06;;;;;;;18.25;11.93;;;7.40;99.90;;;;;;5025121;28;20048;-76
2021/10/13 06:03:32;;;;;;;18.77;11.73;;;7.50;99.90;;;;;;5016698;28;20046;-76
2021/10/13 06:05:58;;;;;;;19.55;11.90;;;7.60;99.90;;;;;;5035151;28;20038;-74
2021/10/13 06:08:23;;;;;;;15.63;11.30;;;7.60;99.90;;;;;;5036199;28;20034;-76
2021/10/13 06:10:49;;;;;;;14.48;12.30;;;7.80;99.90;;;;;;5021399;28;20049;-75
2021/10/13 06:13:15;;;;;;;19.65;10.90;;;7.80;99.90;;;;;;5008392;28;20109;-76
2021/10/13 06:15:41;;;;;;;18.17;12.95;;;7.80;99.90;;;;;;4997915;28;20030;-76
2021/10/13 06:18:07;;;;;;;25.63;17.95;;;7.70;99.90;;;;;;4997639;28;20029;-74
2021/10/13 06:20:33;;;;;;;23.00;16.05;;;7.70;99.90;;;;;;5016459;28;20040;-77
2021/10/13 06:22:59;;;;;;;14.80;13.05;;;7.70;99.90;;;;;;5017367;28;20022;-75
2021/10/13 06:25:25;;;;;;;14.82;12.68;;;7.70;99.90;;;;;;5017973;28;20097;-75
2021/10/13 06:27:50;;;;;;;13.55;10.65;;;7.80;99.90;;;;;;5016217;28;20043;-76
2021/10/13 06:30:16;;;;;;;16.38;11.80;;;7.90;99.90;;;;;;5016760;28;20454;-74
2021/10/13 06:32:42;;;;;;;14.70;10.80;;;8.00;99.90;;;;;;5017290;28;20030;-76
2021/10/13 06:35:08;;;;;;;17.73;10.70;;;8.00;99.90;;;;;;5018400;28;20046;-76
2021/10/13 06:37:33;;;;;;;22.70;10.63;;;8.10;99.90;;;;;;5010556;28;20026;-76
2021/10/13 06:39:59;;;;;;;11.90;10.52;;;8.20;99.90;;;;;;5018781;28;20033;-76
2021/10/13 06:42:24;;;;;;;13.88;11.45;;;8.20;99.90;;;;;;5022508;28;20045;-76
2021/10/13 06:44:50;;;;;;;14.40;10.98;;;8.30;99.90;;;;;;5021242;28;20076;-77
2021/10/13 06:47:16;;;;;;;13.80;10.18;;;8.30;99.90;;;;;;5020634;28;20032;-75
2021/10/13 06:49:41;;;;;;;12.38;10.02;;;8.20;99.90;;;;;;5017911;28;20034;-77
2021/10/13 06:52:07;;;;;;;16.52;9.93;;;8.20;99.90;;;;;;5020310;28;20394;-76
2021/10/13 06:54:32;;;;;;;10.80;9.57;;;8.30;99.90;;;;;;5018919;28;20032;-77
2021/10/13 06:56:58;;;;;;;15.73;9.93;;;8.30;99.90;;;;;;5019225;28;20225;-77
2021/10/13 06:59:23;;;;;;;12.40;9.45;;;8.20;99.90;;;;;;5020161;28;20080;-77
2021/10/13 07:01:49;;;;;;;11.98;8.93;;;8.30;99.90;;;;;;5016478;28;20053;-75
2021/10/13 07:04:14;;;;;;;10.77;9.55;;;8.40;99.90;;;;;;5006321;28;20065;-77
2021/10/13 07:06:40;;;;;;;12.93;8.77;;;8.50;99.90;;;;;;5023460;28;20033;-77
2021/10/13 07:09:05;;;;;;;11.57;9.95;;;8.60;99.90;;;;;;5017741;28;20038;-75
2021/10/13 07:11:32;;;;;;;11.05;8.65;;;8.80;99.90;;;;;;5015536;28;20041;-76
2021/10/13 07:13:58;;;;;;;13.50;10.43;;;8.80;99.90;;;;;;5013889;28;20044;-76
2021/10/13 07:16:23;;;;;;;10.38;8.70;;;8.90;99.90;;;;;;5016122;28;20022;-76
2021/10/13 07:18:49;;;;;;;10.52;7.90;;;9.00;99.90;;;;;;5015455;28;20022;-77
2021/10/13 07:21:14;;;;;;;13.20;8.70;;;8.90;99.90;;;;;;5016659;28;20038;-76
2021/10/13 07:23:40;;;;;;;12.60;8.07;;;8.80;99.90;;;;;;5016610;28;20017;-76
2021/10/13 07:26:06;;;;;;;12.13;8.15;;;8.70;99.90;;;;;;5013997;28;20091;-76
2021/10/13 07:28:35;;;;;;;11.05;8.70;;;8.60;99.90;;;;;;5016460;28;20056;-76
2021/10/13 07:31:01;;;;;;;11.45;8.32;;;8.60;99.90;;;;;;5016382;28;20486;-76
2021/10/13 07:33:26;;;;;;;11.88;8.05;;;8.60;99.90;;;;;;4997809;28;20026;-76
2021/10/13 07:35:52;;;;;;;11.98;8.20;;;8.60;99.90;;;;;;5014821;28;20034;-76
2021/10/13 07:38:17;;;;;;;10.45;8.85;;;8.70;99.90;;;;;;5016432;28;20061;-75
2021/10/13 07:40:44;;;;;;;12.05;8.55;;;8.90;99.90;;;;;;5015952;28;20038;-77
2021/10/13 07:43:09;;;;;;;12.90;10.65;;;9.00;99.90;;;;;;5017184;28;20033;-77
2021/10/13 07:45:35;;;;;;;9.98;8.63;;;9.20;99.90;;;;;;5018212;28;20018;-77
2021/10/13 07:48:02;;;;;;;11.20;10.02;;;9.30;99.90;;;;;;5018551;28;20481;-77
2021/10/13 07:50:28;;;;;;;12.75;9.27;;;9.50;99.90;;;;;;5033491;28;20072;-78
2021/10/13 07:52:54;;;;;;;11.23;9.73;;;9.70;99.90;;;;;;5019767;28;20363;-76
2021/10/13 07:55:20;;;;;;;11.77;9.65;;;10.00;99.90;;;;;;5013224;28;20025;-76
2021/10/13 07:57:45;;;;;;;13.82;10.10;;;9.90;99.90;;;;;;4996525;28;20544;-76
2021/10/13 08:00:12;;;;;;;11.93;9.18;;;10.10;99.90;;;;;;5011563;28;20398;-76
2021/10/13 08:02:43;;;;;;;11.75;8.75;;;10.10;99.90;;;;;;5016175;28;20022;-77
2021/10/13 08:05:09;;;;;;;;;;;9.80;99.90;;;;;;5027847;28;20006;-75
2021/10/13 08:07:34;;;;;;;12.50;7.82;;;9.70;99.90;;;;;;5036900;28;19909;-74
2021/10/13 08:10:00;;;;;;;13.27;9.60;;;9.80;99.90;;;;;;5025863;28;20037;-76
2021/10/13 08:12:25;;;;;;;17.63;9.18;;;9.80;99.90;;;;;;5019057;28;20113;-76
2021/10/13 08:14:51;;;;;;;10.65;8.70;;;9.90;99.90;;;;;;5018166;28;20068;-76
2021/10/13 08:17:16;;;;;;;20.88;9.52;;;9.80;99.90;;;;;;5012776;28;20035;-75
2021/10/13 08:22:10;;;;;;;13.00;8.70;;;9.50;99.90;;;;;;5012319;28;20394;-74
2021/10/13 08:24:35;;;;;;;10.82;7.75;;;9.60;99.90;;;;;;5018308;28;20036;-76
2021/10/13 08:27:02;;;;;;;14.05;9.13;;;9.60;99.90;;;;;;5015655;28;20026;-75
2021/10/13 08:29:28;;;;;;;10.30;7.88;;;9.80;99.90;;;;;;5015758;28;20494;-76
2021/10/13 08:31:54;;;;;;;13.63;8.80;;;9.90;99.90;;;;;;4998300;28;20030;-75
2021/10/13 08:34:20;;;;;;;10.18;8.77;;;10.20;99.90;;;;;;4997138;28;20037;-74
2021/10/13 08:36:47;;;;;;;14.18;8.77;;;10.50;99.90;;;;;;4995718;28;20185;-77
2021/10/13 08:39:13;;;;;;;12.57;8.98;;;10.80;99.90;;;;;;4997242;28;20014;-75
2021/10/13 08:41:38;;;;;;;12.25;10.10;;;11.20;99.90;;;;;;4995234;28;20423;-76
2021/10/13 08:44:04;;;;;;;14.77;10.10;;;11.10;99.90;;;;;;4994702;28;20513;-77
2021/10/13 08:46:30;;;;;;;14.63;10.25;;;10.70;99.90;;;;;;4995272;28;20033;-75
2021/10/13 08:48:56;;;;;;;15.10;11.50;;;10.30;99.90;;;;;;4997324;28;20037;-75
2021/10/13 08:51:22;;;;;;;20.17;12.35;;;10.20;99.90;;;;;;4996215;28;20061;-75
2021/10/13 08:53:47;;;;;;;14.50;11.20;;;10.00;99.90;;;;;;4995828;28;20019;-76
2021/10/13 08:56:13;;;;;;;15.63;10.05;;;10.00;99.90;;;;;;4995444;28;20026;-75
2021/10/13 08:58:40;;;;;;;13.60;9.90;;;9.90;99.90;;;;;;4987545;28;20030;-77
2021/10/13 09:01:09;;;;;;;12.50;9.88;;;10.20;99.90;;;;;;4994683;28;20474;-76
2021/10/13 09:03:38;;;;;;;15.43;9.25;;;10.20;99.90;;;;;;4995470;28;20165;-74
2021/10/13 09:06:21;;;;;;;12.05;8.15;;;10.40;99.90;;;;;;4994156;28;20659;-77
2021/10/13 09:09:09;;;;;;;10.15;8.25;;;10.30;99.90;;;;;;4995491;28;20081;-76
2021/10/13 09:11:48;;;;;;;12.43;9.25;;;10.50;99.90;;;;;;5000753;28;20030;-76
2021/10/13 09:14:24;;;;;;;15.30;9.07;;;10.40;99.90;;;;;;4995319;28;20465;-75
2021/10/13 09:17:05;;;;;;;13.85;8.38;;;10.20;99.90;;;;;;4995134;28;20053;-75
2021/10/13 09:19:37;;;;;;;11.77;8.65;;;10.20;99.90;;;;;;4996070;28;20022;-76
2021/10/13 09:22:04;;;;;;;14.68;8.27;;;10.30;99.90;;;;;;4995923;28;20439;-75
2021/10/13 09:24:31;;;;;;;4.50;3.28;;;10.30;99.90;;;;;;4995366;28;20034;-75
2021/10/13 09:27:16;;;;;;;7.15;3.55;;;10.30;99.90;;;;;;4994888;28;20043;-76
2021/10/13 09:29:45;;;;;;;6.60;2.28;;;10.40;99.90;;;;;;4995625;28;20430;-75
2021/10/13 09:32:11;;;;;;;5.63;2.38;;;10.30;99.90;;;;;;4998735;28;20393;-75
2021/10/13 09:34:45;;;;;;;4.78;2.85;;;10.40;99.90;;;;;;5011824;28;20097;-75
2021/10/13 09:37:11;;;;;;;2.00;1.52;;;10.40;99.90;;;;;;5013274;28;20046;-76
2021/10/13 09:39:37;;;;;;;4.85;2.72;;;10.50;99.90;;;;;;5014200;28;20034;-74
2021/10/13 09:42:12;;;;;;;5.05;2.85;;;10.50;99.90;;;;;;5014593;28;20018;-73
2021/10/13 09:44:51;;;;;;;4.38;2.17;;;10.50;99.90;;;;;;5014689;28;20045;-76
2021/10/13 09:47:18;;;;;;;4.45;2.60;;;10.50;99.90;;;;;;5015597;28;20023;-76
2021/10/13 09:49:48;;;;;;;3.50;2.20;;;10.70;99.90;;;;;;5007216;28;20038;-76
2021/10/13 09:52:16;;;;;;;4.57;3.45;;;10.90;99.90;;;;;;5002992;28;20034;-75
2021/10/13 09:54:44;;;;;;;8.65;4.90;;;10.80;99.90;;;;;;5011454;28;20026;-75
2021/10/13 09:57:24;;;;;;;11.30;6.05;;;10.80;99.90;;;;;;5012421;28;20094;-75
2021/10/13 10:00:12;;;;;;;9.90;5.82;;;10.80;99.90;;;;;;5008589;28;20034;-75
2021/10/13 10:02:54;;;;;;;14.60;7.15;;;11.10;99.90;;;;;;5013299;28;20030;-73
2021/10/13 10:05:30;;;;;;;18.52;7.88;;;11.30;99.90;;;;;;5014331;28;20058;-74
2021/10/13 10:08:05;;;;;;;11.80;7.07;;;11.50;99.90;;;;;;5013309;28;20023;-75
2021/10/13 10:10:35;;;;;;;11.13;7.40;;;12.10;99.90;;;;;;5012452;28;20032;-74
2021/10/13 10:13:04;;;;;;;9.98;5.95;;;12.10;99.90;;;;;;5012613;28;20025;-74
2021/10/13 10:15:47;;;;;;;10.02;6.22;;;12.20;99.90;;;;;;5015199;28;20018;-74
2021/10/13 10:18:33;;;;;;;10.73;6.78;;;12.10;99.90;;;;;;5006640;28;20053;-75
2021/10/13 10:21:24;;;;;;;9.07;6.80;;;11.80;99.90;;;;;;5009818;28;20033;-75
2021/10/13 10:23:56;;;;;;;10.68;6.28;;;11.90;99.90;;;;;;4999470;28;20487;-74
2021/10/13 10:26:25;;;;;;;8.85;7.47;;;11.70;99.90;;;;;;5011329;28;20034;-75
2021/10/13 10:28:50;;;;;;;11.18;6.68;;;11.50;99.90;;;;;;5010929;28;20030;-75
2021/10/13 10:31:28;;;;;;;8.57;6.35;;;11.40;99.90;;;;;;5013122;28;20037;-75
2021/10/13 10:34:03;;;;;;;7.00;5.47;;;11.80;99.90;;;;;;5010803;28;20030;-76
2021/10/13 10:36:48;;;;;;;7.18;5.57;;;11.60;99.90;;;;;;5009745;28;20042;-76
2021/10/13 10:39:17;;;;;;;5.82;4.82;;;11.50;99.90;;;;;;5007023;28;20029;-75
2021/10/13 10:41:54;;;;;;;7.65;6.60;;;11.70;99.90;;;;;;5004160;28;20410;-76
2021/10/13 10:44:41;;;;;;;10.02;6.45;;;11.80;99.90;;;;;;5003495;28;20030;-76
2021/10/13 10:47:11;;;;;;;10.48;6.18;;;11.70;99.90;;;;;;5003138;28;20049;-76
2021/10/13 10:49:45;;;;;;;10.15;6.28;;;11.70;99.90;;;;;;5005739;28;20031;-75
2021/10/13 10:52:17;;;;;;;11.43;6.80;;;11.50;99.90;;;;;;5003090;28;20303;-75
2021/10/13 10:55:07;;;;;;;10.18;7.15;;;11.40;99.90;;;;;;5007606;28;20050;-76
2021/10/13 10:57:38;;;;;;;13.07;9.07;;;11.40;99.90;;;;;;5006296;28;20101;-76
2021/10/13 11:00:10;;;;;;;13.88;8.48;;;11.40;99.90;;;;;;5004393;28;20057;-75
2021/10/13 11:02:36;;;;;;;9.48;7.60;;;11.20;99.90;;;;;;5003338;28;20072;-75
2021/10/13 11:05:08;;;;;;;11.38;7.00;;;11.20;99.90;;;;;;5002277;28;20414;-74
2021/10/13 11:07:40;;;;;;;10.93;6.60;;;11.20;99.90;;;;;;5001577;28;20022;-76
2021/10/13 11:10:08;;;;;;;6.65;5.47;;;11.40;99.90;;;;;;5008939;28;20308;-75
2021/10/13 11:12:54;;;;;;;4.90;4.30;;;11.40;99.90;;;;;;5002854;28;20026;-75
2021/10/13 11:15:23;;;;;;;6.38;4.75;;;11.50;99.90;;;;;;5004099;28;20086;-76
2021/10/13 11:17:49;;;;;;;7.13;4.07;;;11.90;99.90;;;;;;4999269;28;20117;-76
2021/10/13 11:20:18;;;;;;;6.45;4.75;;;11.90;99.90;;;;;;5002760;28;20086;-75
2021/10/13 11:22:44;;;;;;;5.88;4.47;;;11.90;99.90;;;;;;5006155;28;20026;-74
2021/10/13 11:25:14;;;;;;;6.95;4.30;;;11.90;99.90;;;;;;5005548;28;20037;-75
2021/10/13 11:27:41;;;;;;;9.15;4.65;;;11.80;99.90;;;;;;4996110;28;20019;-75
2021/10/13 11:30:20;;;;;;;7.05;5.07;;;11.60;99.90;;;;;;5006104;28;20034;-77
2021/10/13 11:32:45;;;;;;;7.63;5.57;;;11.40;99.90;;;;;;5008372;28;20026;-76
2021/10/13 11:35:13;;;;;;;6.65;4.78;;;11.90;99.90;;;;;;5010651;28;20029;-75
2021/10/13 11:37:39;;;;;;;10.50;5.05;;;11.70;99.90;;;;;;5010865;28;20027;-75
2021/10/13 11:40:05;;;;;;;5.78;5.07;;;11.60;99.90;;;;;;5007665;28;20033;-75
2021/10/13 11:42:32;;;;;;;4.72;3.90;;;11.40;99.90;;;;;;5006975;28;20058;-74
2021/10/13 11:44:58;;;;;;;6.72;3.50;;;11.10;99.90;;;;;;5009638;28;20057;-75
2021/10/13 11:47:34;;;;;;;3.95;3.53;;;11.20;99.90;;;;;;5015417;28;20030;-75
2021/10/13 11:50:03;;;;;;;5.85;3.17;;;11.40;99.90;;;;;;5018796;28;20018;-74
2021/10/13 11:52:29;;;;;;;5.38;2.97;;;11.60;99.90;;;;;;5017392;28;20033;-75
2021/10/13 11:55:08;;;;;;;4.65;2.15;;;11.90;99.90;;;;;;5007509;28;20043;-74
2021/10/13 11:57:37;;;;;;;2.63;1.33;;;12.10;99.90;;;;;;5002745;28;20026;-76
2021/10/13 12:00:12;;;;;;;3.72;1.33;;;12.20;99.90;;;;;;4999114;28;20078;-77
2021/10/13 12:02:38;;;;;;;5.28;1.60;;;12.30;99.90;;;;;;5002142;28;20094;-76
2021/10/13 12:05:07;;;;;;;2.40;1.10;;;12.30;99.90;;;;;;5002575;28;20068;-74
2021/10/13 12:07:44;;;;;;;4.53;0.95;;;11.90;99.90;;;;;;5001692;28;20053;-78
2021/10/13 12:10:11;;;;;;;1.00;0.68;;;11.70;99.90;;;;;;5001168;28;20026;-75
2021/10/13 12:12:37;;;;;;;2.20;0.80;;;11.60;99.90;;;;;;5001325;28;20026;-77
2021/10/13 12:15:22;;;;;;;1.45;0.57;;;11.50;99.90;;;;;;5004029;28;20585;-75
2021/10/13 12:17:47;;;;;;;1.85;0.70;;;11.50;99.90;;;;;;5011082;28;20050;-76
2021/10/13 12:20:19;;;;;;;3.03;1.10;;;11.40;99.90;;;;;;5011169;28;20040;-74
2021/10/13 12:22:49;;;;;;;2.63;0.90;;;11.40;99.90;;;;;;5002094;28;20034;-76
2021/10/13 12:25:30;;;;;;;1.65;0.90;;;11.60;99.90;;;;;;5002272;28;20026;-75
2021/10/13 12:27:58;;;;;;;1.85;0.98;;;11.80;99.90;;;;;;5001654;28;20022;-76
2021/10/13 12:30:36;;;;;;;1.23;0.80;;;11.80;99.90;;;;;;5000341;28;20042;-77
2021/10/13 12:33:08;;;;;;;2.08;1.10;;;11.80;99.90;;;;;;5001329;28;20046;-76
2021/10/13 12:35:34;;;;;;;1.88;0.77;;;11.80;99.90;;;;;;5001303;28;20038;-75
2021/10/13 12:38:02;;;;;;;2.17;1.00;;;11.90;99.90;;;;;;4999792;28;20038;-74
2021/10/13 12:40:27;;;;;;;2.67;0.73;;;11.60;99.90;;;;;;4999057;28;20037;-75
2021/10/13 12:42:55;;;;;;;0.93;0.70;;;11.40;99.90;;;;;;4999934;28;20022;-76
2021/10/13 12:45:25;;;;;;;0.82;0.70;;;11.50;99.90;;;;;;4997199;28;20026;-76
2021/10/13 12:48:10;;;;;;;4.10;0.80;;;11.30;99.90;;;;;;5004861;28;20022;-75
2021/10/13 12:50:36;;;;;;;2.60;0.80;;;11.20;99.90;;;;;;4997176;28;20054;-76
2021/10/13 12:53:01;;;;;;;2.20;0.90;;;11.30;99.90;;;;;;4996936;28;20413;-76